createdAt,value
2023-04-11T00:00:48.053Z,1.44
2023-04-11T00:01:48.062Z,1.38
2023-04-11T00:02:48.289Z,1.18
2023-04-11T00:03:48.285Z,1.57
2023-04-11T00:04:48.075Z,1.42
2023-04-11T00:05:48.008Z,1.33
2023-04-11T00:06:48.137Z,1.24
2023-04-11T00:07:47.998Z,1.77
2023-04-11T00:08:48.035Z,1.29
2023-04-11T00:09:47.984Z,1.27
2023-04-11T00:10:47.988Z,1.22
2023-04-11T00:11:47.998Z,1.47
2023-04-11T00:12:48.050Z,1.31
2023-04-11T00:13:47.954Z,1.35
2023-04-11T00:14:47.948Z,1.61
2023-04-11T00:15:47.989Z,1.64
2023-04-11T00:16:47.961Z,1.20
2023-04-11T00:17:47.973Z,1.40
2023-04-11T00:18:47.931Z,1.48
2023-04-11T00:19:47.924Z,1.23
2023-04-11T00:20:47.911Z,1.27
2023-04-11T00:21:47.904Z,1.58
2023-04-11T00:22:47.897Z,1.63
2023-04-11T00:23:47.888Z,1.08
2023-04-11T00:24:47.896Z,1.55
2023-04-11T00:25:47.873Z,1.48
2023-04-11T00:26:47.872Z,1.44
2023-04-11T00:27:47.862Z,1.31
2023-04-11T00:28:47.854Z,1.52
2023-04-11T00:29:47.845Z,1.24
2023-04-11T00:30:47.953Z,1.30
2023-04-11T00:31:47.849Z,1.02
2023-04-11T00:32:47.876Z,1.15
2023-04-11T00:33:47.818Z,1.42
2023-04-11T00:34:47.821Z,1.80
2023-04-11T00:35:47.845Z,1.37
2023-04-11T00:36:47.844Z,1.07
2023-04-11T00:37:47.805Z,1.31
2023-04-11T00:38:47.808Z,1.47
2023-04-11T00:39:47.775Z,1.12
2023-04-11T00:40:47.769Z,1.13
2023-04-11T00:41:47.763Z,1.32
2023-04-11T00:42:47.784Z,1.45
2023-04-11T00:43:47.740Z,1.34
2023-04-11T00:44:47.741Z,1.35
2023-04-11T00:45:47.869Z,1.49
2023-04-11T00:46:47.748Z,1.44
2023-04-11T00:47:47.744Z,1.33
2023-04-11T00:48:47.730Z,1.26
2023-04-11T00:49:47.716Z,1.33
2023-04-11T00:50:47.717Z,1.62
2023-04-11T00:51:47.705Z,1.60
2023-04-11T00:52:47.699Z,1.55
2023-04-11T00:53:47.772Z,1.30
2023-04-11T00:54:47.698Z,1.47
2023-04-11T00:55:47.676Z,1.16
2023-04-11T00:56:47.661Z,1.05
2023-04-11T00:57:47.775Z,1.44
2023-04-11T00:58:47.659Z,1.05
2023-04-11T00:59:47.651Z,1.09
2023-04-11T01:00:47.714Z,1.22
2023-04-11T01:01:47.677Z,1.25
2023-04-11T01:02:47.688Z,1.29
2023-04-11T01:03:47.769Z,1.11
2023-04-11T01:04:47.624Z,1.51
2023-04-11T01:05:47.619Z,1.11
2023-04-11T01:06:47.630Z,1.35
2023-04-11T01:07:47.608Z,1.49
2023-04-11T01:08:47.586Z,1.37
2023-04-11T01:09:48.220Z,1.25
2023-04-11T01:10:48.155Z,1.08
2023-04-11T01:11:47.581Z,1.44
2023-04-11T01:12:47.561Z,1.35
2023-04-11T01:13:47.560Z,1.18
2023-04-11T01:14:47.544Z,1.21
2023-04-11T01:15:47.543Z,0.97
2023-04-11T01:16:47.610Z,1.38
2023-04-11T01:17:47.593Z,1.17
2023-04-11T01:18:47.518Z,1.31
2023-04-11T01:19:47.510Z,1.17
2023-04-11T01:20:47.512Z,1.08
2023-04-11T01:21:47.499Z,1.19
2023-04-11T01:22:47.552Z,1.37
2023-04-11T01:23:47.477Z,1.35
2023-04-11T01:24:47.475Z,1.12
2023-04-11T01:25:47.474Z,1.13
2023-04-11T01:26:47.465Z,1.36
2023-04-11T01:27:47.457Z,1.15
2023-04-11T01:28:47.671Z,1.59
2023-04-11T01:29:47.496Z,1.03
2023-04-11T01:30:47.479Z,1.25
2023-04-11T01:31:48.230Z,1.30
2023-04-11T01:32:47.467Z,1.07
2023-04-11T01:33:47.409Z,1.23
2023-04-11T01:34:47.395Z,1.28
2023-04-11T01:35:47.428Z,1.21
2023-04-11T01:36:47.475Z,0.98
2023-04-11T01:37:47.380Z,1.00
2023-04-11T01:38:47.355Z,1.23
2023-04-11T01:39:47.354Z,1.32
2023-04-11T01:40:47.350Z,1.30
2023-04-11T01:41:47.341Z,1.28
2023-04-11T01:42:47.327Z,1.21
2023-04-11T01:43:47.331Z,1.21
2023-04-11T01:44:47.320Z,1.14
2023-04-11T01:45:47.307Z,1.18
2023-04-11T01:46:47.303Z,1.42
2023-04-11T01:47:49.010Z,1.49
2023-04-11T01:48:47.355Z,1.21
2023-04-11T01:49:47.292Z,1.26
2023-04-11T01:50:47.278Z,1.24
2023-04-11T01:51:47.273Z,1.34
2023-04-11T01:52:47.253Z,1.25
2023-04-11T01:53:47.260Z,1.02
2023-04-11T01:54:47.247Z,0.96
2023-04-11T01:55:47.240Z,1.21
2023-04-11T01:56:47.248Z,1.18
2023-04-11T01:57:47.231Z,1.26
2023-04-11T01:58:47.223Z,1.43
2023-04-11T01:59:47.210Z,1.11
2023-04-11T02:00:47.197Z,1.22
2023-04-11T02:01:47.236Z,1.41
2023-04-11T02:02:47.321Z,1.17
2023-04-11T02:03:47.239Z,1.09
2023-04-11T02:04:47.176Z,1.29
2023-04-11T02:05:47.175Z,1.40
2023-04-11T02:06:47.191Z,0.87
2023-04-11T02:07:47.168Z,1.36
2023-04-11T02:08:47.146Z,1.54
2023-04-11T02:09:47.143Z,1.41
2023-04-11T02:10:47.144Z,1.11
2023-04-11T02:11:47.133Z,1.38
2023-04-11T02:12:47.137Z,1.11
2023-04-11T02:13:47.122Z,1.49
2023-04-11T02:14:47.109Z,1.18
2023-04-11T02:15:47.156Z,1.29
2023-04-11T02:16:47.092Z,1.38
2023-04-11T02:17:47.127Z,1.17
2023-04-11T02:18:47.085Z,1.20
2023-04-11T02:19:47.078Z,0.85
2023-04-11T02:20:47.067Z,0.97
2023-04-11T02:21:47.064Z,1.28
2023-04-11T02:22:47.064Z,1.44
2023-04-11T02:23:47.061Z,1.14
2023-04-11T02:24:47.035Z,1.30
2023-04-11T02:25:47.033Z,1.24
2023-04-11T02:26:47.022Z,1.10
2023-04-11T02:27:47.023Z,1.12
2023-04-11T02:28:47.009Z,1.12
2023-04-11T02:29:47.001Z,1.33
2023-04-11T02:30:47.086Z,1.19
2023-04-11T02:31:47.041Z,0.95
2023-04-11T02:32:47.010Z,1.05
2023-04-11T02:33:46.970Z,1.18
2023-04-11T02:34:47.033Z,1.17
2023-04-11T02:35:47.062Z,1.02
2023-04-11T02:36:47.002Z,1.02
2023-04-11T02:37:46.943Z,0.99
2023-04-11T02:38:47.021Z,1.14
2023-04-11T02:39:46.931Z,1.02
2023-04-11T02:40:46.923Z,1.24
2023-04-11T02:41:46.915Z,1.02
2023-04-11T02:42:46.911Z,1.22
2023-04-11T02:43:46.912Z,1.43
2023-04-11T02:44:46.892Z,1.43
2023-04-11T02:45:46.889Z,1.27
2023-04-11T02:46:46.985Z,1.26
2023-04-11T02:47:46.887Z,1.14
2023-04-11T02:48:46.884Z,1.05
2023-04-11T02:49:46.854Z,1.27
2023-04-11T02:50:46.848Z,1.07
2023-04-11T02:51:46.840Z,1.14
2023-04-11T02:52:47.828Z,1.38
2023-04-11T02:53:46.827Z,1.16
2023-04-11T02:54:46.818Z,1.00
2023-04-11T02:55:46.830Z,1.00
2023-04-11T02:56:46.861Z,0.90
2023-04-11T02:57:46.871Z,1.54
2023-04-11T02:58:46.788Z,1.13
2023-04-11T02:59:46.779Z,1.39
2023-04-11T03:00:47.202Z,1.17
2023-04-11T03:01:46.826Z,1.19
2023-04-11T03:02:46.842Z,0.93
2023-04-11T03:03:46.817Z,1.20
2023-04-11T03:04:46.756Z,1.01
2023-04-11T03:05:46.754Z,1.33
2023-04-11T03:06:46.732Z,1.23
2023-04-11T03:07:46.729Z,1.22
2023-04-11T03:08:46.743Z,1.18
2023-04-11T03:09:46.741Z,1.24
2023-04-11T03:10:46.716Z,1.19
2023-04-11T03:11:47.466Z,1.14
2023-04-11T03:12:46.697Z,1.20
2023-04-11T03:13:46.696Z,1.15
2023-04-11T03:14:46.684Z,1.12
2023-04-11T03:15:46.716Z,1.42
2023-04-11T03:16:46.668Z,1.18
2023-04-11T03:17:47.237Z,1.12
2023-04-11T03:18:46.665Z,1.22
2023-04-11T03:19:46.647Z,1.24
2023-04-11T03:20:46.636Z,0.96
2023-04-11T03:21:46.635Z,1.11
2023-04-11T03:22:47.212Z,1.16
2023-04-11T03:23:46.632Z,1.22
2023-04-11T03:24:46.619Z,1.10
2023-04-11T03:25:46.611Z,1.15
2023-04-11T03:26:46.623Z,1.51
2023-04-11T03:27:46.592Z,1.14
2023-04-11T03:28:46.609Z,1.20
2023-04-11T03:29:46.589Z,1.36
2023-04-11T03:30:46.583Z,1.25
2023-04-11T03:31:46.641Z,0.89
2023-04-11T03:32:46.596Z,1.11
2023-04-11T03:33:46.556Z,1.09
2023-04-11T03:34:46.547Z,0.95
2023-04-11T03:35:46.551Z,1.10
2023-04-11T03:36:46.532Z,0.97
2023-04-11T03:37:46.522Z,1.31
2023-04-11T03:38:46.519Z,1.18
2023-04-11T03:39:46.518Z,1.41
2023-04-11T03:40:46.506Z,1.17
2023-04-11T03:41:46.504Z,1.15
2023-04-11T03:42:46.486Z,1.12
2023-04-11T03:43:46.481Z,0.96
2023-04-11T03:44:47.215Z,1.27
2023-04-11T03:45:46.468Z,1.91
2023-04-11T03:46:46.532Z,1.27
2023-04-11T03:47:46.473Z,1.09
2023-04-11T03:48:46.518Z,1.14
2023-04-11T03:49:46.431Z,0.92
2023-04-11T03:50:46.533Z,1.19
2023-04-11T03:51:46.437Z,1.17
2023-04-11T03:52:46.415Z,1.34
2023-04-11T03:53:46.424Z,0.92
2023-04-11T03:54:47.783Z,0.83
2023-04-11T03:55:46.396Z,1.41
2023-04-11T03:56:46.456Z,0.95
2023-04-11T03:57:46.380Z,1.14
2023-04-11T03:58:46.377Z,1.16
2023-04-11T03:59:46.363Z,1.12
2023-04-11T04:00:46.372Z,0.95
2023-04-11T04:01:46.416Z,1.10
2023-04-11T04:02:46.494Z,0.96
2023-04-11T04:03:46.467Z,1.17
2023-04-11T04:04:46.430Z,1.03
2023-04-11T04:05:46.324Z,1.36
2023-04-11T04:06:46.317Z,1.10
2023-04-11T04:07:46.307Z,1.25
2023-04-11T04:08:46.739Z,1.26
2023-04-11T04:09:46.297Z,1.09
2023-04-11T04:10:46.305Z,1.24
2023-04-11T04:11:46.281Z,1.03
2023-04-11T04:12:46.278Z,1.09
2023-04-11T04:13:46.276Z,1.29
2023-04-11T04:14:46.259Z,1.04
2023-04-11T04:15:46.259Z,1.17
2023-04-11T04:16:46.289Z,1.23
2023-04-11T04:17:46.278Z,0.95
2023-04-11T04:18:46.241Z,1.20
2023-04-11T04:19:46.223Z,1.36
2023-04-11T04:20:46.225Z,1.04
2023-04-11T04:21:46.217Z,1.35
2023-04-11T04:22:46.205Z,1.12
2023-04-11T04:23:46.205Z,0.96
2023-04-11T04:24:46.189Z,1.18
2023-04-11T04:25:46.194Z,1.19
2023-04-11T04:26:46.191Z,0.95
2023-04-11T04:27:46.178Z,1.21
2023-04-11T04:28:46.179Z,1.27
2023-04-11T04:29:46.186Z,1.40
2023-04-11T04:30:46.154Z,1.20
2023-04-11T04:31:46.182Z,1.20
2023-04-11T04:32:46.209Z,1.02
2023-04-11T04:33:46.125Z,1.04
2023-04-11T04:34:46.118Z,1.11
2023-04-11T04:35:46.172Z,1.28
2023-04-11T04:36:46.116Z,1.11
2023-04-11T04:37:46.275Z,1.06
2023-04-11T04:38:46.101Z,1.22
2023-04-11T04:39:46.736Z,1.26
2023-04-11T04:40:46.845Z,1.06
2023-04-11T04:41:46.087Z,1.11
2023-04-11T04:42:46.065Z,1.00
2023-04-11T04:43:46.072Z,1.01
2023-04-11T04:44:46.053Z,1.28
2023-04-11T04:45:46.159Z,1.30
2023-04-11T04:46:46.051Z,0.87
2023-04-11T04:47:46.110Z,0.93
2023-04-11T04:48:46.030Z,1.03
2023-04-11T04:49:46.021Z,1.25
2023-04-11T04:50:46.012Z,0.98
2023-04-11T04:51:46.009Z,1.03
2023-04-11T04:52:46.000Z,1.33
2023-04-11T04:53:45.996Z,1.20
2023-04-11T04:54:45.990Z,1.33
2023-04-11T04:55:45.979Z,1.10
2023-04-11T04:56:45.974Z,1.12
2023-04-11T04:57:45.961Z,1.17
2023-04-11T04:58:45.960Z,1.22
2023-04-11T04:59:45.967Z,1.00
2023-04-11T05:00:45.972Z,1.18
2023-04-11T05:01:46.043Z,1.26
2023-04-11T05:02:46.087Z,1.13
2023-04-11T05:03:46.036Z,1.16
2023-04-11T05:04:45.953Z,0.98
2023-04-11T05:05:45.962Z,0.83
2023-04-11T05:06:45.983Z,0.87
2023-04-11T05:07:45.970Z,0.94
2023-04-11T05:08:45.998Z,1.02
2023-04-11T05:09:45.979Z,0.97
2023-04-11T05:10:45.986Z,1.00
2023-04-11T05:11:45.999Z,1.22
2023-04-11T05:12:45.995Z,1.02
2023-04-11T05:13:45.999Z,1.36
2023-04-11T05:14:45.988Z,1.10
2023-04-11T05:15:45.983Z,1.19
2023-04-11T05:16:46.045Z,1.28
2023-04-11T05:17:46.054Z,1.07
2023-04-11T05:18:46.021Z,1.06
2023-04-11T05:19:46.036Z,1.47
2023-04-11T05:20:46.029Z,1.05
2023-04-11T05:21:46.044Z,0.99
2023-04-11T05:22:46.043Z,0.99
2023-04-11T05:23:46.052Z,1.17
2023-04-11T05:24:46.061Z,1.03
2023-04-11T05:25:46.058Z,1.21
2023-04-11T05:26:46.079Z,1.41
2023-04-11T05:27:46.074Z,1.16
2023-04-11T05:28:46.077Z,1.30
2023-04-11T05:29:46.075Z,1.03
2023-04-11T05:30:46.105Z,1.22
2023-04-11T05:31:46.070Z,1.40
2023-04-11T05:32:46.101Z,1.23
2023-04-11T05:33:46.077Z,1.24
2023-04-11T05:34:46.072Z,1.14
2023-04-11T05:35:46.091Z,1.26
2023-04-11T05:36:46.425Z,1.31
2023-04-11T05:37:46.764Z,1.65
2023-04-11T05:38:46.077Z,1.45
2023-04-11T05:39:46.069Z,1.11
2023-04-11T05:40:46.155Z,1.23
2023-04-11T05:41:46.067Z,1.35
2023-04-11T05:42:46.078Z,1.00
2023-04-11T05:43:46.088Z,1.22
2023-04-11T05:44:46.082Z,1.14
2023-04-11T05:45:46.120Z,1.15
2023-04-11T05:46:46.070Z,1.15
2023-04-11T05:47:46.099Z,1.38
2023-04-11T05:48:46.074Z,1.05
2023-04-11T05:49:46.070Z,1.47
2023-04-11T05:50:46.078Z,1.23
2023-04-11T05:51:46.074Z,1.20
2023-04-11T05:52:46.074Z,1.39
2023-04-11T05:53:46.072Z,1.30
2023-04-11T05:54:46.078Z,1.30
2023-04-11T05:55:46.765Z,1.14
2023-04-11T05:56:46.105Z,1.17
2023-04-11T05:57:46.120Z,1.14
2023-04-11T05:58:46.128Z,1.22
2023-04-11T05:59:46.153Z,1.15
2023-04-11T06:00:46.238Z,1.31
2023-04-11T06:01:46.364Z,0.95
2023-04-11T06:02:46.377Z,1.62
2023-04-11T06:03:46.419Z,1.22
2023-04-11T06:04:46.393Z,1.13
2023-04-11T06:05:46.301Z,1.26
2023-04-11T06:06:46.321Z,1.17
2023-04-11T06:07:47.279Z,1.34
2023-04-11T06:08:46.379Z,1.19
2023-04-11T06:09:46.358Z,0.97
2023-04-11T06:10:46.363Z,1.28
2023-04-11T06:11:46.364Z,1.48
2023-04-11T06:12:46.369Z,1.75
2023-04-11T06:13:46.390Z,1.41
2023-04-11T06:14:46.387Z,1.30
2023-04-11T06:15:46.432Z,1.42
2023-04-11T06:16:46.417Z,1.21
2023-04-11T06:17:46.460Z,1.07
2023-04-11T06:18:47.339Z,0.95
2023-04-11T06:19:46.455Z,1.11
2023-04-11T06:20:46.462Z,1.33
2023-04-11T06:21:46.468Z,1.24
2023-04-11T06:22:46.456Z,1.33
2023-04-11T06:23:46.479Z,0.98
2023-04-11T06:24:46.479Z,0.94
2023-04-11T06:25:46.485Z,1.01
2023-04-11T06:26:46.493Z,1.40
2023-04-11T06:27:46.826Z,1.27
2023-04-11T06:28:46.522Z,1.68
2023-04-11T06:29:46.529Z,1.14
2023-04-11T06:30:46.541Z,1.15
2023-04-11T06:31:46.693Z,1.15
2023-04-11T06:32:46.582Z,1.05
2023-04-11T06:33:46.556Z,1.15
2023-04-11T06:34:46.556Z,1.23
2023-04-11T06:35:46.569Z,1.67
2023-04-11T06:36:46.569Z,1.28
2023-04-11T06:37:46.570Z,1.26
2023-04-11T06:38:46.593Z,1.28
2023-04-11T06:39:46.618Z,1.07
2023-04-11T06:40:46.573Z,1.37
2023-04-11T06:41:46.591Z,1.41
2023-04-11T06:42:46.578Z,1.34
2023-04-11T06:43:46.579Z,1.37
2023-04-11T06:44:46.608Z,1.14
2023-04-11T06:45:46.591Z,1.09
2023-04-11T06:46:46.705Z,1.15
2023-04-11T06:47:46.649Z,1.36
2023-04-11T06:48:46.587Z,1.22
2023-04-11T06:49:46.588Z,1.12
2023-04-11T06:50:46.800Z,1.35
2023-04-11T06:51:46.577Z,1.32
2023-04-11T06:52:46.587Z,1.44
2023-04-11T06:53:46.795Z,1.73
2023-04-11T06:54:46.605Z,1.37
2023-04-11T06:55:46.618Z,1.35
2023-04-11T06:56:46.646Z,1.23
2023-04-11T06:57:46.657Z,1.68
2023-04-11T06:58:46.676Z,1.53
2023-04-11T06:59:46.673Z,1.00
2023-04-11T07:00:46.701Z,1.68
2023-04-11T07:01:46.773Z,1.45
2023-04-11T07:02:46.933Z,1.18
2023-04-11T07:03:46.870Z,1.56
2023-04-11T07:04:46.813Z,1.06
2023-04-11T07:05:46.723Z,1.13
2023-04-11T07:06:46.725Z,1.52
2023-04-11T07:07:46.706Z,1.52
2023-04-11T07:08:46.735Z,1.33
2023-04-11T07:09:46.890Z,1.31
2023-04-11T07:10:46.752Z,1.14
2023-04-11T07:11:46.769Z,1.10
2023-04-11T07:12:46.787Z,1.16
2023-04-11T07:13:46.805Z,1.21
2023-04-11T07:14:46.815Z,1.07
2023-04-11T07:15:46.850Z,1.27
2023-04-11T07:16:46.869Z,1.42
2023-04-11T07:17:46.910Z,1.44
2023-04-11T07:18:46.952Z,1.61
2023-04-11T07:19:47.019Z,1.33
2023-04-11T07:20:47.071Z,1.32
2023-04-11T07:21:47.024Z,1.50
2023-04-11T07:22:47.046Z,1.65
2023-04-11T07:23:47.058Z,2.32
2023-04-11T07:24:47.107Z,2.39
2023-04-11T07:25:47.148Z,2.16
2023-04-11T07:26:47.145Z,2.72
2023-04-11T07:27:47.225Z,2.18
2023-04-11T07:28:47.272Z,2.40
2023-04-11T07:29:47.295Z,2.53
2023-04-11T07:30:47.334Z,2.54
2023-04-11T07:31:47.412Z,2.47
2023-04-11T07:32:47.436Z,1.98
2023-04-11T07:33:47.410Z,2.48
2023-04-11T07:34:48.227Z,2.67
2023-04-11T07:35:47.481Z,1.76
2023-04-11T07:36:47.503Z,2.48
2023-04-11T07:37:47.563Z,2.07
2023-04-11T07:38:47.590Z,2.42
2023-04-11T07:39:47.672Z,2.29
2023-04-11T07:40:47.620Z,2.50
2023-04-11T07:41:47.817Z,2.56
2023-04-11T07:42:47.657Z,2.24
2023-04-11T07:43:47.664Z,2.41
2023-04-11T07:44:47.697Z,2.35
2023-04-11T07:45:47.784Z,2.50
2023-04-11T07:46:47.797Z,2.33
2023-04-11T07:47:47.965Z,2.46
2023-04-11T07:48:47.894Z,2.25
2023-04-11T07:49:47.930Z,2.29
2023-04-11T07:50:47.967Z,2.14
2023-04-11T07:51:47.997Z,2.99
2023-04-11T07:52:48.003Z,2.53
2023-04-11T07:53:48.031Z,2.49
2023-04-11T07:54:48.111Z,2.01
2023-04-11T07:55:48.054Z,2.09
2023-04-11T07:56:48.054Z,2.04
2023-04-11T07:57:48.064Z,2.99
2023-04-11T07:58:48.083Z,2.60
2023-04-11T07:59:48.081Z,2.21
2023-04-11T08:00:48.071Z,2.44
2023-04-11T08:01:48.147Z,1.84
2023-04-11T08:02:48.168Z,2.36
2023-04-11T08:03:48.189Z,2.66
2023-04-11T08:04:48.183Z,2.52
2023-04-11T08:05:48.091Z,2.95
2023-04-11T08:06:48.094Z,2.52
2023-04-11T08:07:48.107Z,2.50
2023-04-11T08:08:48.113Z,2.44
2023-04-11T08:09:48.145Z,2.87
2023-04-11T08:10:50.008Z,2.88
2023-04-11T08:11:48.147Z,3.09
2023-04-11T08:12:48.177Z,2.95
2023-04-11T08:13:48.139Z,3.07
2023-04-11T08:14:48.206Z,3.44
2023-04-11T08:15:48.119Z,3.76
2023-04-11T08:16:48.155Z,3.90
2023-04-11T08:17:48.138Z,3.97
2023-04-11T08:18:48.143Z,4.39
2023-04-11T08:19:48.108Z,3.68
2023-04-11T08:20:48.096Z,5.57
2023-04-11T08:21:48.085Z,4.98
2023-04-11T08:22:48.072Z,5.30
2023-04-11T08:23:49.766Z,4.79
2023-04-11T08:24:48.747Z,5.79
2023-04-11T08:25:48.129Z,5.40
2023-04-11T08:26:48.056Z,6.10
2023-04-11T08:27:48.049Z,4.26
2023-04-11T08:28:48.061Z,5.27
2023-04-11T08:29:48.031Z,5.25
2023-04-11T08:30:48.385Z,5.88
2023-04-11T08:31:48.834Z,4.77
2023-04-11T08:32:48.109Z,5.08
2023-04-11T08:33:48.042Z,4.47
2023-04-11T08:34:48.011Z,4.65
2023-04-11T08:35:48.020Z,4.74
2023-04-11T08:36:47.989Z,4.94
2023-04-11T08:37:48.058Z,4.15
2023-04-11T08:38:47.985Z,4.79
2023-04-11T08:39:47.976Z,3.84
2023-04-11T08:40:47.969Z,4.13
2023-04-11T08:41:47.981Z,4.25
2023-04-11T08:42:48.027Z,3.93
2023-04-11T08:43:47.957Z,3.59
2023-04-11T08:44:47.938Z,4.63
2023-04-11T08:45:47.958Z,4.08
2023-04-11T08:46:47.930Z,5.11
2023-04-11T08:47:47.927Z,3.86
2023-04-11T08:48:47.917Z,4.52
2023-04-11T08:49:47.961Z,4.63
2023-04-11T08:50:47.937Z,4.36
2023-04-11T08:51:47.879Z,3.90
2023-04-11T08:52:47.873Z,4.65
2023-04-11T08:53:48.836Z,3.99
2023-04-11T08:54:47.893Z,4.44
2023-04-11T08:55:47.992Z,4.64
2023-04-11T08:56:47.998Z,5.13
2023-04-11T08:57:48.000Z,4.30
2023-04-11T08:58:48.803Z,4.28
2023-04-11T08:59:48.118Z,5.17
2023-04-11T09:00:48.170Z,4.12
2023-04-11T09:01:48.425Z,3.58
2023-04-11T09:02:48.521Z,3.68
2023-04-11T09:03:48.357Z,4.31
2023-04-11T09:04:48.460Z,4.51
2023-04-11T09:05:48.469Z,5.39
2023-04-11T09:06:48.527Z,4.68
2023-04-11T09:07:48.583Z,4.33
2023-04-11T09:08:48.642Z,4.37
2023-04-11T09:09:48.717Z,4.28
2023-04-11T09:10:48.778Z,4.53
2023-04-11T09:11:48.822Z,4.43
2023-04-11T09:12:48.879Z,3.85
2023-04-11T09:13:49.016Z,3.45
2023-04-11T09:14:49.088Z,3.98
2023-04-11T09:15:49.069Z,4.00
2023-04-11T09:16:49.103Z,4.14
2023-04-11T09:17:49.210Z,3.77
2023-04-11T09:18:49.231Z,4.43
2023-04-11T09:19:49.690Z,3.99
2023-04-11T09:20:49.300Z,4.40
2023-04-11T09:21:49.418Z,5.54
2023-04-11T09:22:49.419Z,4.22
2023-04-11T09:23:49.394Z,4.55
2023-04-11T09:24:49.463Z,4.63
2023-04-11T09:25:49.504Z,3.89
2023-04-11T09:26:49.564Z,4.11
2023-04-11T09:27:49.605Z,4.65
2023-04-11T09:28:49.666Z,3.66
2023-04-11T09:29:49.721Z,4.04
2023-04-11T09:30:50.317Z,4.73
2023-04-11T09:31:49.871Z,3.89
2023-04-11T09:32:49.895Z,3.52
2023-04-11T09:33:50.017Z,4.06
2023-04-11T09:34:50.899Z,4.95
2023-04-11T09:35:50.043Z,3.41
2023-04-11T09:36:50.105Z,3.18
2023-04-11T09:37:50.179Z,3.88
2023-04-11T09:38:50.201Z,3.90
2023-04-11T09:39:50.260Z,3.67
2023-04-11T09:40:50.318Z,4.17
2023-04-11T09:41:50.350Z,4.33
2023-04-11T09:42:50.441Z,3.30
2023-04-11T09:43:50.451Z,3.52
2023-04-11T09:44:50.489Z,3.64
2023-04-11T09:45:54.518Z,3.42
2023-04-11T09:46:51.807Z,3.51
2023-04-11T09:47:51.439Z,3.16
2023-04-11T09:48:50.522Z,3.96
2023-04-11T09:49:50.503Z,3.37
2023-04-11T09:50:50.500Z,2.71
2023-04-11T09:51:50.500Z,3.32
2023-04-11T09:52:50.484Z,3.17
2023-04-11T09:53:50.572Z,3.33
2023-04-11T09:54:50.487Z,2.93
2023-04-11T09:55:50.465Z,2.87
2023-04-11T09:56:50.551Z,3.20
2023-04-11T09:57:50.451Z,3.37
2023-04-11T09:58:51.371Z,3.45
2023-04-11T09:59:50.434Z,2.82
2023-04-11T10:00:50.418Z,3.44
2023-04-11T10:01:50.560Z,3.63
2023-04-11T10:02:50.519Z,2.99
2023-04-11T10:03:50.480Z,3.17
2023-04-11T10:04:50.400Z,3.25
2023-04-11T10:05:50.386Z,3.08
2023-04-11T10:06:50.390Z,3.25
2023-04-11T10:07:50.385Z,2.98
2023-04-11T10:08:50.382Z,3.31
2023-04-11T10:09:50.361Z,3.52
2023-04-11T10:10:50.358Z,4.11
2023-04-11T10:11:50.347Z,3.09
2023-04-11T10:12:50.338Z,3.71
2023-04-11T10:13:50.332Z,4.26
2023-04-11T10:14:50.313Z,3.56
2023-04-11T10:15:50.318Z,3.98
2023-04-11T10:16:50.328Z,2.71
2023-04-11T10:17:50.904Z,3.73
2023-04-11T10:18:50.316Z,2.92
2023-04-11T10:19:50.351Z,3.85
2023-04-11T10:20:50.502Z,4.27
2023-04-11T10:21:50.453Z,4.20
2023-04-11T10:22:50.519Z,2.86
2023-04-11T10:23:50.566Z,3.64
2023-04-11T10:24:50.629Z,3.36
2023-04-11T10:25:50.686Z,4.09
2023-04-11T10:26:50.759Z,3.14
2023-04-11T10:27:50.817Z,3.59
2023-04-11T10:28:50.879Z,3.27
2023-04-11T10:29:51.764Z,2.82
2023-04-11T10:30:50.975Z,4.21
2023-04-11T10:31:51.055Z,2.97
2023-04-11T10:32:51.107Z,2.76
2023-04-11T10:33:51.216Z,3.25
2023-04-11T10:34:51.153Z,3.38
2023-04-11T10:35:51.241Z,4.88
2023-04-11T10:36:51.215Z,2.40
2023-04-11T10:37:51.227Z,3.04
2023-04-11T10:38:51.372Z,2.91
2023-04-11T10:39:51.253Z,2.76
2023-04-11T10:40:51.254Z,3.22
2023-04-11T10:41:51.295Z,2.91
2023-04-11T10:42:51.252Z,2.04
2023-04-11T10:43:51.288Z,3.08
2023-04-11T10:44:51.304Z,2.11
2023-04-11T10:45:51.323Z,2.65
2023-04-11T10:46:51.482Z,2.87
2023-04-11T10:47:51.505Z,2.67
2023-04-11T10:48:51.886Z,2.57
2023-04-11T10:49:51.368Z,2.46
2023-04-11T10:50:51.366Z,3.20
2023-04-11T10:51:51.386Z,2.41
2023-04-11T10:52:51.445Z,2.98
2023-04-11T10:53:51.391Z,2.57
2023-04-11T10:54:51.431Z,2.58
2023-04-11T10:55:51.434Z,2.68
2023-04-11T10:56:51.432Z,2.26
2023-04-11T10:57:51.428Z,2.55
2023-04-11T10:58:51.433Z,2.28
2023-04-11T10:59:51.489Z,2.27
2023-04-11T11:00:51.552Z,2.60
2023-04-11T11:01:52.504Z,2.20
2023-04-11T11:02:51.678Z,2.64
2023-04-11T11:03:51.621Z,2.46
2023-04-11T11:04:51.710Z,2.14
2023-04-11T11:05:51.614Z,2.08
2023-04-11T11:06:56.939Z,2.90
2023-04-11T11:07:52.673Z,2.80
2023-04-11T11:08:51.623Z,2.51
2023-04-11T11:09:51.663Z,2.36
2023-04-11T11:10:51.578Z,2.05
2023-04-11T11:11:51.570Z,2.09
2023-04-11T11:12:51.569Z,2.27
2023-04-11T11:13:51.569Z,2.18
2023-04-11T11:14:52.409Z,2.86
2023-04-11T11:15:51.546Z,2.56
2023-04-11T11:16:51.556Z,1.65
2023-04-11T11:17:51.582Z,1.80
2023-04-11T11:18:51.533Z,2.07
2023-04-11T11:19:51.529Z,1.39
2023-04-11T11:20:51.563Z,1.88
2023-04-11T11:21:51.505Z,1.72
2023-04-11T11:22:51.498Z,2.30
2023-04-11T11:23:51.514Z,1.95
2023-04-11T11:24:52.434Z,1.49
2023-04-11T11:25:51.474Z,2.22
2023-04-11T11:26:51.465Z,1.63
2023-04-11T11:27:51.465Z,1.39
2023-04-11T11:28:51.469Z,2.16
2023-04-11T11:29:51.460Z,1.96
2023-04-11T11:30:52.199Z,3.10
2023-04-11T11:31:51.675Z,1.63
2023-04-11T11:32:51.688Z,2.16
2023-04-11T11:33:51.887Z,1.53
2023-04-11T11:34:51.627Z,2.27
2023-04-11T11:35:51.655Z,2.19
2023-04-11T11:36:51.663Z,1.85
2023-04-11T11:37:51.688Z,2.22
2023-04-11T11:38:51.754Z,1.74
2023-04-11T11:39:51.672Z,2.02
2023-04-11T11:40:51.679Z,2.29
2023-04-11T11:41:51.678Z,1.89
2023-04-11T11:42:51.764Z,1.90
2023-04-11T11:43:51.831Z,1.69
2023-04-11T11:44:51.746Z,1.67
2023-04-11T11:45:51.770Z,1.99
2023-04-11T11:46:51.751Z,2.15
2023-04-11T11:47:51.915Z,2.08
2023-04-11T11:48:51.817Z,1.56
2023-04-11T11:49:51.913Z,1.80
2023-04-11T11:50:51.811Z,1.71
2023-04-11T11:51:51.818Z,1.95
2023-04-11T11:52:51.816Z,1.59
2023-04-11T11:53:52.002Z,1.93
2023-04-11T11:54:51.969Z,1.78
2023-04-11T11:55:51.927Z,1.59
2023-04-11T11:56:51.954Z,1.67
2023-04-11T11:57:51.983Z,1.88
2023-04-11T11:58:52.039Z,1.52
2023-04-11T11:59:51.977Z,1.95
2023-04-11T12:00:52.056Z,1.81
2023-04-11T12:01:52.024Z,1.54
2023-04-11T12:02:52.161Z,1.86
2023-04-11T12:03:53.069Z,1.66
2023-04-11T12:04:53.102Z,1.67
2023-04-11T12:05:51.979Z,1.68
2023-04-11T12:06:51.966Z,1.69
2023-04-11T12:07:51.972Z,1.62
2023-04-11T12:08:52.011Z,1.70
2023-04-11T12:09:51.971Z,1.56
2023-04-11T12:10:52.042Z,1.27
2023-04-11T12:11:51.964Z,1.34
2023-04-11T12:12:53.199Z,1.36
2023-04-11T12:13:52.090Z,1.40
2023-04-11T12:14:52.008Z,1.45
2023-04-11T12:15:52.065Z,1.64
2023-04-11T12:16:52.047Z,2.24
2023-04-11T12:17:52.120Z,2.40
2023-04-11T12:18:52.075Z,4.28
2023-04-11T12:19:52.084Z,3.18
2023-04-11T12:20:52.126Z,2.95
2023-04-11T12:21:52.117Z,3.97
2023-04-11T12:22:54.128Z,2.66
2023-04-11T12:23:52.431Z,2.75
2023-04-11T12:24:52.320Z,2.71
2023-04-11T12:25:52.425Z,2.98
2023-04-11T12:27:06.324Z,2.57
2023-04-11T12:27:53.923Z,3.27
2023-04-11T12:28:52.347Z,2.46
2023-04-11T12:29:52.331Z,3.41
2023-04-11T12:30:52.388Z,2.43
2023-04-11T12:31:52.354Z,2.75
2023-04-11T12:32:52.428Z,2.36
2023-04-11T12:33:52.335Z,3.31
2023-04-11T12:34:52.306Z,2.64
2023-04-11T12:35:52.287Z,2.41
2023-04-11T12:36:52.361Z,2.43
2023-04-11T12:37:52.367Z,2.42
2023-04-11T12:38:52.284Z,2.01
2023-04-11T12:39:52.317Z,2.58
2023-04-11T12:40:56.854Z,2.28
2023-04-11T12:41:53.262Z,2.30
2023-04-11T12:43:52.254Z,1.99
2023-04-11T12:44:52.243Z,2.92
2023-04-11T12:45:52.237Z,2.89
2023-04-11T12:46:52.267Z,2.19
2023-04-11T12:47:52.337Z,2.98
2023-04-11T12:48:52.224Z,2.06
2023-04-11T12:49:52.227Z,2.03
2023-04-11T12:50:52.203Z,1.92
2023-04-11T12:51:52.233Z,1.72
2023-04-11T12:52:52.190Z,1.92
2023-04-11T12:53:52.187Z,1.77
2023-04-11T12:54:52.447Z,2.79
2023-04-11T12:55:52.217Z,2.15
2023-04-11T12:56:52.170Z,2.46
2023-04-11T12:57:52.155Z,1.82
2023-04-11T12:58:52.213Z,1.54
2023-04-11T12:59:52.152Z,2.42
2023-04-11T13:00:52.143Z,1.85
2023-04-11T13:01:52.211Z,1.96
2023-04-11T13:02:52.377Z,1.87
2023-04-11T13:03:52.301Z,1.45
2023-04-11T13:04:52.392Z,1.90
2023-04-11T13:05:52.186Z,1.89
2023-04-11T13:06:52.152Z,1.92
2023-04-11T13:07:52.108Z,2.03
2023-04-11T13:08:52.945Z,1.69
2023-04-11T13:09:52.087Z,1.95
2023-04-11T13:10:53.419Z,1.84
2023-04-11T13:11:52.067Z,1.71
2023-04-11T13:12:52.059Z,1.90
2023-04-11T13:13:52.053Z,3.07
2023-04-11T13:14:52.050Z,2.00
2023-04-11T13:15:52.058Z,1.86
2023-04-11T13:16:52.113Z,1.85
2023-04-11T13:17:52.046Z,1.24
2023-04-11T13:18:52.019Z,1.96
2023-04-11T13:19:52.072Z,1.84